sensor_id;sensor_type;location;lat;lon;timestamp;pressure;altitude;pressure_sealevel;temperature;humidity
57606;BME280;43430;48.204;11.556;2023-04-29T00:02:04;95848.09;;;9.41;100.00
57606;BME280;43430;48.204;11.556;2023-04-29T00:04:29;95847.50;;;9.39;100.00
57606;BME280;43430;48.204;11.556;2023-04-29T00:06:54;95847.94;;;9.36;100.00
57606;BME280;43430;48.204;11.556;2023-04-29T00:09:20;95854.22;;;9.35;100.00
57606;BME280;43430;48.204;11.556;2023-04-29T00:11:46;95852.63;;;9.34;100.00
57606;BME280;43430;48.204;11.556;2023-04-29T00:14:12;95844.28;;;9.37;100.00
57606;BME280;43430;48.204;11.556;2023-04-29T00:16:37;95847.34;;;9.34;100.00
57606;BME280;43430;48.204;11.556;2023-04-29T00:19:02;95843.75;;;9.28;100.00
57606;BME280;43430;48.204;11.556;2023-04-29T00:21:28;95837.25;;;9.31;100.00
57606;BME280;43430;48.204;11.556;2023-04-29T00:23:53;95843.97;;;9.27;100.00
57606;BME280;43430;48.204;11.556;2023-04-29T00:26:19;95835.84;;;9.28;100.00
57606;BME280;43430;48.204;11.556;2023-04-29T00:28:44;95833.03;;;9.30;100.00
57606;BME280;43430;48.204;11.556;2023-04-29T00:31:10;95833.59;;;9.32;100.00
57606;BME280;43430;48.204;11.556;2023-04-29T00:33:35;95836.81;;;9.34;100.00
57606;BME280;43430;48.204;11.556;2023-04-29T00:36:01;95831.63;;;9.27;100.00
57606;BME280;43430;48.204;11.556;2023-04-29T00:38:26;95834.44;;;9.33;100.00
57606;BME280;43430;48.204;11.556;2023-04-29T00:40:52;95838.66;;;9.34;100.00
57606;BME280;43430;48.204;11.556;2023-04-29T00:43:17;95833.16;;;9.35;100.00
57606;BME280;43430;48.204;11.556;2023-04-29T00:45:42;95836.41;;;9.37;100.00
57606;BME280;43430;48.204;11.556;2023-04-29T00:48:08;95832.31;;;9.41;100.00
57606;BME280;43430;48.204;11.556;2023-04-29T00:50:34;95831.28;;;9.42;100.00
57606;BME280;43430;48.204;11.556;2023-04-29T00:53:00;95832.09;;;9.43;100.00
57606;BME280;43430;48.204;11.556;2023-04-29T00:55:27;95822.38;;;9.43;100.00
57606;BME280;43430;48.204;11.556;2023-04-29T00:57:52;95817.47;;;9.47;100.00
57606;BME280;43430;48.204;11.556;2023-04-29T01:00:18;95821.03;;;9.52;100.00
57606;BME280;43430;48.204;11.556;2023-04-29T01:02:45;95819.16;;;9.60;100.00
57606;BME280;43430;48.204;11.556;2023-04-29T01:05:10;95812.44;;;9.64;100.00
57606;BME280;43430;48.204;11.556;2023-04-29T01:10:27;95824.69;;;9.70;100.00
57606;BME280;43430;48.204;11.556;2023-04-29T01:13:06;95824.28;;;9.73;100.00
57606;BME280;43430;48.204;11.556;2023-04-29T01:15:46;95817.16;;;9.73;100.00
57606;BME280;43430;48.204;11.556;2023-04-29T01:18:19;95824.63;;;9.77;100.00
57606;BME280;43430;48.204;11.556;2023-04-29T01:20:45;95821.56;;;9.80;100.00
57606;BME280;43430;48.204;11.556;2023-04-29T01:23:11;95820.75;;;9.79;100.00
57606;BME280;43430;48.204;11.556;2023-04-29T01:25:37;95817.69;;;9.82;100.00
57606;BME280;43430;48.204;11.556;2023-04-29T01:28:37;95815.66;;;9.84;100.00
57606;BME280;43430;48.204;11.556;2023-04-29T01:32:03;95821.50;;;9.86;100.00
57606;BME280;43430;48.204;11.556;2023-04-29T01:34:13;95820.56;;;9.81;100.00
57606;BME280;43430;48.204;11.556;2023-04-29T01:36:52;95816.16;;;9.74;100.00
57606;BME280;43430;48.204;11.556;2023-04-29T01:39:26;95819.38;;;9.77;100.00
57606;BME280;43430;48.204;11.556;2023-04-29T01:42:09;95816.16;;;9.74;100.00
57606;BME280;43430;48.204;11.556;2023-04-29T01:44:37;95818.00;;;9.74;100.00
57606;BME280;43430;48.204;11.556;2023-04-29T01:47:04;95823.47;;;9.72;100.00
57606;BME280;43430;48.204;11.556;2023-04-29T01:49:34;95821.00;;;9.78;100.00
57606;BME280;43430;48.204;11.556;2023-04-29T01:51:59;95819.81;;;9.73;100.00
57606;BME280;43430;48.204;11.556;2023-04-29T01:54:25;95814.78;;;9.72;100.00
57606;BME280;43430;48.204;11.556;2023-04-29T01:56:50;95820.63;;;9.74;100.00
57606;BME280;43430;48.204;11.556;2023-04-29T01:59:16;95815.00;;;9.70;100.00
57606;BME280;43430;48.204;11.556;2023-04-29T02:01:41;95825.13;;;9.67;100.00
57606;BME280;43430;48.204;11.556;2023-04-29T02:04:07;95825.75;;;9.69;100.00
57606;BME280;43430;48.204;11.556;2023-04-29T02:06:32;95824.28;;;9.73;100.00
57606;BME280;43430;48.204;11.556;2023-04-29T02:08:58;95822.81;;;9.77;100.00
57606;BME280;43430;48.204;11.556;2023-04-29T02:11:23;95823.28;;;9.74;100.00
57606;BME280;43430;48.204;11.556;2023-04-29T02:13:48;95827.06;;;9.78;100.00
57606;BME280;43430;48.204;11.556;2023-04-29T02:16:14;95827.06;;;9.78;100.00
57606;BME280;43430;48.204;11.556;2023-04-29T02:18:40;95828.06;;;9.77;100.00
57606;BME280;43430;48.204;11.556;2023-04-29T02:21:06;95820.16;;;9.77;100.00
57606;BME280;43430;48.204;11.556;2023-04-29T02:23:32;95821.00;;;9.78;100.00
57606;BME280;43430;48.204;11.556;2023-04-29T02:25:58;95828.06;;;9.77;100.00
57606;BME280;43430;48.204;11.556;2023-04-29T02:28:23;95820.63;;;9.74;100.00
57606;BME280;43430;48.204;11.556;2023-04-29T02:30:48;95827.50;;;9.75;100.00
57606;BME280;43430;48.204;11.556;2023-04-29T02:33:14;95825.91;;;9.74;100.00
57606;BME280;43430;48.204;11.556;2023-04-29T02:35:40;95827.13;;;9.71;100.00
57606;BME280;43430;48.204;11.556;2023-04-29T02:38:06;95828.53;;;9.74;100.00
57606;BME280;43430;48.204;11.556;2023-04-29T02:40:31;95829.09;;;9.76;100.00
57606;BME280;43430;48.204;11.556;2023-04-29T02:42:56;95829.09;;;9.76;100.00
57606;BME280;43430;48.204;11.556;2023-04-29T02:45:22;95825.44;;;9.77;100.00
57606;BME280;43430;48.204;11.556;2023-04-29T02:47:47;95826.63;;;9.81;100.00
57606;BME280;43430;48.204;11.556;2023-04-29T02:50:13;95832.47;;;9.83;100.00
57606;BME280;43430;48.204;11.556;2023-04-29T02:52:38;95829.38;;;9.86;100.00
57606;BME280;43430;48.204;11.556;2023-04-29T02:55:06;95831.22;;;9.86;100.00
57606;BME280;43430;48.204;11.556;2023-04-29T02:57:31;95834.81;;;9.91;100.00
57606;BME280;43430;48.204;11.556;2023-04-29T02:59:58;95831.75;;;9.94;100.00
57606;BME280;43430;48.204;11.556;2023-04-29T03:02:23;95838.75;;;10.01;100.00
57606;BME280;43430;48.204;11.556;2023-04-29T03:04:49;95839.91;;;10.05;100.00
57606;BME280;43430;48.204;11.556;2023-04-29T03:07:14;95838.91;;;10.06;100.00
57606;BME280;43430;48.204;11.556;2023-04-29T03:09:41;95830.41;;;10.04;100.00
57606;BME280;43430;48.204;11.556;2023-04-29T03:12:06;95837.28;;;10.05;100.00
57606;BME280;43430;48.204;11.556;2023-04-29T03:14:32;95834.63;;;10.05;100.00
57606;BME280;43430;48.204;11.556;2023-04-29T03:16:57;95832.22;;;10.03;100.00
57606;BME280;43430;48.204;11.556;2023-04-29T03:19:23;95831.19;;;10.04;100.00
57606;BME280;43430;48.204;11.556;2023-04-29T03:21:48;95831.78;;;10.06;100.00
57606;BME280;43430;48.204;11.556;2023-04-29T03:24:14;95840.66;;;10.12;100.00
57606;BME280;43430;48.204;11.556;2023-04-29T03:26:40;95831.72;;;10.13;100.00
57606;BME280;43430;48.204;11.556;2023-04-29T03:29:07;95837.47;;;10.21;100.00
57606;BME280;43430;48.204;11.556;2023-04-29T03:31:32;95834.63;;;10.23;100.00
57606;BME280;43430;48.204;11.556;2023-04-29T03:33:58;95830.59;;;10.20;100.00
57606;BME280;43430;48.204;11.556;2023-04-29T03:36:23;95827.75;;;10.22;100.00
57606;BME280;43430;48.204;11.556;2023-04-29T03:38:48;95830.16;;;10.23;100.00
57606;BME280;43430;48.204;11.556;2023-04-29T03:41:14;95831.41;;;10.21;100.00
57606;BME280;43430;48.204;11.556;2023-04-29T03:43:39;95827.75;;;10.22;100.00
57606;BME280;43430;48.204;11.556;2023-04-29T03:46:05;95828.72;;;10.28;100.00
57606;BME280;43430;48.204;11.556;2023-04-29T03:48:30;95835.19;;;10.25;100.00
57606;BME280;43430;48.204;11.556;2023-04-29T03:50:56;95830.16;;;10.23;100.00
57606;BME280;43430;48.204;11.556;2023-04-29T03:53:21;95832.63;;;10.18;100.00
57606;BME280;43430;48.204;11.556;2023-04-29T03:55:47;95833.31;;;10.14;100.00
57606;BME280;43430;48.204;11.556;2023-04-29T03:58:12;95835.94;;;10.14;100.00
57606;BME280;43430;48.204;11.556;2023-04-29T04:00:38;95834.91;;;10.15;100.00
57606;BME280;43430;48.204;11.556;2023-04-29T04:03:04;95835.38;;;10.12;100.00
57606;BME280;43430;48.204;11.556;2023-04-29T04:05:29;95841.66;;;10.11;100.00
57606;BME280;43430;48.204;11.556;2023-04-29T04:07:55;95837.06;;;10.06;100.00
57606;BME280;43430;48.204;11.556;2023-04-29T04:10:20;95839.69;;;10.06;100.00
57606;BME280;43430;48.204;11.556;2023-04-29T04:12:45;95840.50;;;10.07;100.00
57606;BME280;43430;48.204;11.556;2023-04-29T04:15:14;95839.69;;;10.06;100.00
57606;BME280;43430;48.204;11.556;2023-04-29T04:17:41;95841.28;;;10.07;100.00
57606;BME280;43430;48.204;11.556;2023-04-29T04:20:06;95840.28;;;10.08;100.00
57606;BME280;43430;48.204;11.556;2023-04-29T04:22:32;95842.09;;;10.08;100.00
57606;BME280;43430;48.204;11.556;2023-04-29T04:24:57;95854.25;;;10.09;100.00
57606;BME280;43430;48.204;11.556;2023-04-29T04:27:22;95850.84;;;10.08;100.00
57606;BME280;43430;48.204;11.556;2023-04-29T04:29:52;95848.75;;;10.10;100.00
57606;BME280;43430;48.204;11.556;2023-04-29T04:32:18;95853.22;;;10.10;100.00
57606;BME280;43430;48.204;11.556;2023-04-29T04:34:43;95855.06;;;10.09;100.00
57606;BME280;43430;48.204;11.556;2023-04-29T04:37:08;95857.47;;;10.11;100.00
57606;BME280;43430;48.204;11.556;2023-04-29T04:39:34;95863.44;;;10.18;100.00
57606;BME280;43430;48.204;11.556;2023-04-29T04:41:59;95856.34;;;10.18;100.00
57606;BME280;43430;48.204;11.556;2023-04-29T04:44:27;95864.19;;;10.25;100.00
57606;BME280;43430;48.204;11.556;2023-04-29T04:46:52;95860.94;;;10.30;100.00
57606;BME280;43430;48.204;11.556;2023-04-29T04:49:17;95864.03;;;10.38;100.00
57606;BME280;43430;48.204;11.556;2023-04-29T04:51:43;95868.22;;;10.46;100.00
57606;BME280;43430;48.204;11.556;2023-04-29T04:54:09;95863.16;;;10.44;100.00
57606;BME280;43430;48.204;11.556;2023-04-29T04:56:35;95869.84;;;10.59;100.00
57606;BME280;43430;48.204;11.556;2023-04-29T04:59:02;95861.16;;;10.70;100.00
57606;BME280;43430;48.204;11.556;2023-04-29T05:01:27;95865.78;;;10.75;100.00
57606;BME280;43430;48.204;11.556;2023-04-29T05:03:53;95862.13;;;10.76;100.00
57606;BME280;43430;48.204;11.556;2023-04-29T05:06:18;95865.81;;;10.86;100.00
57606;BME280;43430;48.204;11.556;2023-04-29T05:08:43;95864.91;;;10.92;100.00
57606;BME280;43430;48.204;11.556;2023-04-29T05:11:16;95858.75;;;10.99;100.00
57606;BME280;43430;48.204;11.556;2023-04-29T05:13:42;95869.41;;;11.04;100.00
57606;BME280;43430;48.204;11.556;2023-04-29T05:16:07;95860.22;;;11.06;100.00
57606;BME280;43430;48.204;11.556;2023-04-29T05:18:33;95864.59;;;11.12;100.00
57606;BME280;43430;48.204;11.556;2023-04-29T05:20:58;95866.91;;;11.09;100.00
57606;BME280;43430;48.204;11.556;2023-04-29T05:23:24;95876.31;;;11.16;100.00
57606;BME280;43430;48.204;11.556;2023-04-29T05:25:49;95872.19;;;11.21;100.00
57606;BME280;43430;48.204;11.556;2023-04-29T05:28:15;95874.25;;;11.19;100.00
57606;BME280;43430;48.204;11.556;2023-04-29T05:30:40;95878.41;;;11.26;100.00
57606;BME280;43430;48.204;11.556;2023-04-29T05:33:05;95884.00;;;11.41;100.00
57606;BME280;43430;48.204;11.556;2023-04-29T05:35:31;95882.75;;;11.44;100.00
57606;BME280;43430;48.204;11.556;2023-04-29T05:37:57;95880.81;;;11.51;100.00
57606;BME280;43430;48.204;11.556;2023-04-29T05:40:22;95882.19;;;11.54;100.00
57606;BME280;43430;48.204;11.556;2023-04-29T05:42:49;95895.25;;;11.49;100.00
57606;BME280;43430;48.204;11.556;2023-04-29T05:45:14;95899.41;;;11.45;100.00
57606;BME280;43430;48.204;11.556;2023-04-29T05:47:40;95901.13;;;11.39;100.00
57606;BME280;43430;48.204;11.556;2023-04-29T05:50:06;95904.94;;;11.43;100.00
57606;BME280;43430;48.204;11.556;2023-04-29T05:52:31;95904.69;;;11.45;100.00
57606;BME280;43430;48.204;11.556;2023-04-29T05:54:56;95912.59;;;11.45;100.00
57606;BME280;43430;48.204;11.556;2023-04-29T05:57:22;95915.94;;;11.52;100.00
57606;BME280;43430;48.204;11.556;2023-04-29T05:59:47;95906.75;;;11.54;100.00
57606;BME280;43430;48.204;11.556;2023-04-29T06:02:12;95911.56;;;11.46;100.00
57606;BME280;43430;48.204;11.556;2023-04-29T06:04:38;95917.78;;;11.39;100.00
57606;BME280;43430;48.204;11.556;2023-04-29T06:07:05;95916.19;;;11.50;100.00
57606;BME280;43430;48.204;11.556;2023-04-29T06:09:34;95928.56;;;11.61;100.00
57606;BME280;43430;48.204;11.556;2023-04-29T06:12:00;95929.06;;;11.70;100.00
57606;BME280;43430;48.204;11.556;2023-04-29T06:14:25;95922.94;;;11.70;100.00
57606;BME280;43430;48.204;11.556;2023-04-29T06:16:50;95935.69;;;11.61;100.00
57606;BME280;43430;48.204;11.556;2023-04-29T06:19:16;95930.97;;;11.63;100.00
57606;BME280;43430;48.204;11.556;2023-04-29T06:21:41;95935.59;;;11.68;100.00
57606;BME280;43430;48.204;11.556;2023-04-29T06:24:07;95932.84;;;11.74;100.00
57606;BME280;43430;48.204;11.556;2023-04-29T06:26:32;95942.50;;;11.80;100.00
57606;BME280;43430;48.204;11.556;2023-04-29T06:28:57;95941.59;;;11.98;100.00
57606;BME280;43430;48.204;11.556;2023-04-29T06:31:23;95936.66;;;12.02;100.00
57606;BME280;43430;48.204;11.556;2023-04-29T06:33:48;95944.56;;;12.02;100.00
57606;BME280;43430;48.204;11.556;2023-04-29T06:36:13;95943.88;;;12.06;100.00
57606;BME280;43430;48.204;11.556;2023-04-29T06:38:39;95944.13;;;12.05;100.00
57606;BME280;43430;48.204;11.556;2023-04-29T06:41:04;95944.22;;;12.10;100.00
57606;BME280;43430;48.204;11.556;2023-04-29T06:43:30;95942.84;;;12.19;100.00
57606;BME280;43430;48.204;11.556;2023-04-29T06:45:55;95946.03;;;12.33;100.00
57606;BME280;43430;48.204;11.556;2023-04-29T06:48:21;95937.97;;;12.28;100.00
57606;BME280;43430;48.204;11.556;2023-04-29T06:53:15;95936.66;;;12.54;100.00
57606;BME280;43430;48.204;11.556;2023-04-29T06:55:40;95929.13;;;12.63;100.00
57606;BME280;43430;48.204;11.556;2023-04-29T06:58:06;95929.63;;;12.88;100.00
57606;BME280;43430;48.204;11.556;2023-04-29T07:00:31;95921.44;;;12.90;100.00
57606;BME280;43430;48.204;11.556;2023-04-29T07:02:56;95913.84;;;12.93;100.00
57606;BME280;43430;48.204;11.556;2023-04-29T07:05:22;95910.25;;;12.99;100.00
57606;BME280;43430;48.204;11.556;2023-04-29T07:07:48;95912.56;;;12.96;100.00
57606;BME280;43430;48.204;11.556;2023-04-29T07:10:13;95917.13;;;13.00;100.00
57606;BME280;43430;48.204;11.556;2023-04-29T07:12:39;95909.94;;;13.13;100.00
57606;BME280;43430;48.204;11.556;2023-04-29T07:15:05;95912.66;;;13.18;100.00
57606;BME280;43430;48.204;11.556;2023-04-29T07:17:30;95912.13;;;13.16;100.00
57606;BME280;43430;48.204;11.556;2023-04-29T07:19:56;95913.72;;;13.17;100.00
57606;BME280;43430;48.204;11.556;2023-04-29T07:22:21;95915.63;;;13.33;100.00
57606;BME280;43430;48.204;11.556;2023-04-29T07:24:46;95921.81;;;13.39;100.00
57606;BME280;43430;48.204;11.556;2023-04-29T07:27:12;95909.53;;;13.33;100.00
57606;BME280;43430;48.204;11.556;2023-04-29T07:29:37;95910.06;;;13.35;100.00
57606;BME280;43430;48.204;11.556;2023-04-29T07:32:04;95903.25;;;13.39;100.00
57606;BME280;43430;48.204;11.556;2023-04-29T07:34:29;95902.91;;;13.52;100.00
57606;BME280;43430;48.204;11.556;2023-04-29T07:36:55;95903.06;;;13.45;100.00
57606;BME280;43430;48.204;11.556;2023-04-29T07:39:21;95912.06;;;13.61;100.00
57606;BME280;43430;48.204;11.556;2023-04-29T07:41:46;95914.81;;;13.66;100.00
57606;BME280;43430;48.204;11.556;2023-04-29T07:44:12;95905.97;;;13.77;100.00
57606;BME280;43430;48.204;11.556;2023-04-29T07:46:37;95912.00;;;13.73;100.00
57606;BME280;43430;48.204;11.556;2023-04-29T07:49:02;95905.66;;;13.74;100.00
57606;BME280;43430;48.204;11.556;2023-04-29T07:51:29;95884.03;;;13.65;100.00
57606;BME280;43430;48.204;11.556;2023-04-29T07:53:54;95877.22;;;13.69;100.00
57606;BME280;43430;48.204;11.556;2023-04-29T07:56:19;95876.72;;;13.72;100.00
57606;BME280;43430;48.204;11.556;2023-04-29T07:58:45;95886.84;;;13.75;100.00
57606;BME280;43430;48.204;11.556;2023-04-29T08:01:11;95885.16;;;13.69;100.00
57606;BME280;43430;48.204;11.556;2023-04-29T08:03:37;95880.69;;;13.70;100.00
57606;BME280;43430;48.204;11.556;2023-04-29T08:06:03;95880.56;;;13.82;100.00
57606;BME280;43430;48.204;11.556;2023-04-29T08:08:30;95876.22;;;13.92;100.00
57606;BME280;43430;48.204;11.556;2023-04-29T08:10:55;95881.47;;;14.09;100.00
57606;BME280;43430;48.204;11.556;2023-04-29T08:13:20;95876.69;;;14.28;100.00
57606;BME280;43430;48.204;11.556;2023-04-29T08:15:46;95863.53;;;14.38;100.00
57606;BME280;43430;48.204;11.556;2023-04-29T08:18:11;95859.88;;;14.22;100.00
57606;BME280;43430;48.204;11.556;2023-04-29T08:20:36;95865.34;;;14.38;100.00
57606;BME280;43430;48.204;11.556;2023-04-29T08:23:02;95863.88;;;14.47;100.00
57606;BME280;43430;48.204;11.556;2023-04-29T08:25:28;95851.78;;;14.34;100.00
57606;BME280;43430;48.204;11.556;2023-04-29T08:27:54;95853.66;;;14.12;100.00
57606;BME280;43430;48.204;11.556;2023-04-29T08:30:20;95854.09;;;14.25;100.00
57606;BME280;43430;48.204;11.556;2023-04-29T08:32:45;95855.25;;;14.35;100.00
57606;BME280;43430;48.204;11.556;2023-04-29T08:35:11;95856.38;;;14.61;100.00
57606;BME280;43430;48.204;11.556;2023-04-29T08:37:37;95848.47;;;14.44;100.00
57606;BME280;43430;48.204;11.556;2023-04-29T08:40:03;95847.28;;;14.35;100.00
57606;BME280;43430;48.204;11.556;2023-04-29T08:42:34;95846.00;;;14.37;100.00
57606;BME280;43430;48.204;11.556;2023-04-29T08:45:01;95838.44;;;14.73;100.00
57606;BME280;43430;48.204;11.556;2023-04-29T08:47:30;95834.75;;;15.06;100.00
57606;BME280;43430;48.204;11.556;2023-04-29T08:50:01;95820.59;;;14.95;100.00
57606;BME280;43430;48.204;11.556;2023-04-29T08:52:28;95833.09;;;15.00;100.00
57606;BME280;43430;48.204;11.556;2023-04-29T08:54:54;95836.28;;;14.97;100.00
57606;BME280;43430;48.204;11.556;2023-04-29T08:57:21;95846.16;;;14.75;100.00
57606;BME280;43430;48.204;11.556;2023-04-29T08:59:47;95839.22;;;14.46;100.00
57606;BME280;43430;48.204;11.556;2023-04-29T09:02:14;95841.38;;;14.28;100.00
57606;BME280;43430;48.204;11.556;2023-04-29T09:07:19;95842.31;;;14.38;100.00
57606;BME280;43430;48.204;11.556;2023-04-29T09:09:45;95830.53;;;14.78;100.00
57606;BME280;43430;48.204;11.556;2023-04-29T09:12:11;95812.88;;;14.94;100.00
57606;BME280;43430;48.204;11.556;2023-04-29T09:14:37;95814.47;;;14.95;100.00
57606;BME280;43430;48.204;11.556;2023-04-29T09:17:02;95801.72;;;14.92;100.00
57606;BME280;43430;48.204;11.556;2023-04-29T09:19:31;95812.59;;;15.28;100.00
57606;BME280;43430;48.204;11.556;2023-04-29T09:21:57;95793.91;;;15.55;100.00
57606;BME280;43430;48.204;11.556;2023-04-29T09:24:27;95783.13;;;15.72;100.00
57606;BME280;43430;48.204;11.556;2023-04-29T09:26:53;95778.94;;;15.81;100.00
57606;BME280;43430;48.204;11.556;2023-04-29T09:29:19;95788.34;;;16.04;100.00
57606;BME280;43430;48.204;11.556;2023-04-29T09:31:44;95798.75;;;16.10;100.00
57606;BME280;43430;48.204;11.556;2023-04-29T09:34:11;95801.44;;;16.26;100.00
57606;BME280;43430;48.204;11.556;2023-04-29T09:36:47;95786.00;;;16.23;100.00
57606;BME280;43430;48.204;11.556;2023-04-29T09:39:18;95752.94;;;15.98;100.00
57606;BME280;43430;48.204;11.556;2023-04-29T09:44:25;95756.16;;;16.00;100.00
57606;BME280;43430;48.204;11.556;2023-04-29T09:47:03;95751.94;;;16.14;100.00
57606;BME280;43430;48.204;11.556;2023-04-29T09:52:01;95769.63;;;16.77;100.00
57606;BME280;43430;48.204;11.556;2023-04-29T09:54:29;95790.06;;;15.73;100.00
57606;BME280;43430;48.204;11.556;2023-04-29T09:56:56;95804.81;;;15.53;100.00
57606;BME280;43430;48.204;11.556;2023-04-29T09:59:22;95832.16;;;15.16;100.00
57606;BME280;43430;48.204;11.556;2023-04-29T10:01:50;95834.81;;;15.11;100.00
57606;BME280;43430;48.204;11.556;2023-04-29T10:04:18;95833.06;;;14.95;100.00
57606;BME280;43430;48.204;11.556;2023-04-29T10:06:45;95832.19;;;14.57;100.00
57606;BME280;43430;48.204;11.556;2023-04-29T10:09:14;95839.78;;;14.76;100.00
57606;BME280;43430;48.204;11.556;2023-04-29T10:11:44;95823.25;;;14.95;100.00
57606;BME280;43430;48.204;11.556;2023-04-29T10:14:14;95819.59;;;15.07;100.00
57606;BME280;43430;48.204;11.556;2023-04-29T10:16:48;95816.53;;;15.20;100.00
57606;BME280;43430;48.204;11.556;2023-04-29T10:19:24;95819.47;;;15.24;100.00
57606;BME280;43430;48.204;11.556;2023-04-29T10:21:52;95816.16;;;15.43;100.00
57606;BME280;43430;48.204;11.556;2023-04-29T10:24:20;95818.25;;;15.41;100.00
57606;BME280;43430;48.204;11.556;2023-04-29T10:26:49;95812.69;;;15.01;100.00
57606;BME280;43430;48.204;11.556;2023-04-29T10:29:16;95812.63;;;15.33;100.00
57606;BME280;43430;48.204;11.556;2023-04-29T10:31:42;95799.06;;;15.66;100.00
57606;BME280;43430;48.204;11.556;2023-04-29T10:34:09;95783.81;;;16.04;100.00
57606;BME280;43430;48.204;11.556;2023-04-29T10:36:36;95788.44;;;16.45;100.00
57606;BME280;43430;48.204;11.556;2023-04-29T10:39:03;95778.06;;;16.43;100.00
57606;BME280;43430;48.204;11.556;2023-04-29T10:41:50;95773.03;;;16.52;100.00
57606;BME280;43430;48.204;11.556;2023-04-29T10:44:15;95767.69;;;16.47;100.00
57606;BME280;43430;48.204;11.556;2023-04-29T10:46:41;95773.75;;;16.22;100.00
57606;BME280;43430;48.204;11.556;2023-04-29T10:49:07;95773.78;;;16.32;100.00
57606;BME280;43430;48.204;11.556;2023-04-29T10:51:42;95768.09;;;15.98;100.00
57606;BME280;43430;48.204;11.556;2023-04-29T10:54:12;95776.66;;;16.15;100.00
57606;BME280;43430;48.204;11.556;2023-04-29T10:56:46;95763.56;;;15.98;100.00
57606;BME280;43430;48.204;11.556;2023-04-29T10:59:20;95764.03;;;15.85;100.00
57606;BME280;43430;48.204;11.556;2023-04-29T11:01:52;95765.97;;;16.00;100.00
57606;BME280;43430;48.204;11.556;2023-04-29T11:04:19;95751.44;;;16.28;100.00
57606;BME280;43430;48.204;11.556;2023-04-29T11:06:47;95733.34;;;16.50;100.00
57606;BME280;43430;48.204;11.556;2023-04-29T11:16:56;95754.31;;;16.16;100.00
57606;BME280;43430;48.204;11.556;2023-04-29T11:19:24;95759.34;;;16.07;100.00
57606;BME280;43430;48.204;11.556;2023-04-29T11:22:09;95748.41;;;15.99;100.00
57606;BME280;43430;48.204;11.556;2023-04-29T11:24:36;95752.19;;;16.18;100.00
57606;BME280;43430;48.204;11.556;2023-04-29T11:27:12;95745.50;;;16.05;100.00
57606;BME280;43430;48.204;11.556;2023-04-29T11:29:39;95743.38;;;16.02;100.00
57606;BME280;43430;48.204;11.556;2023-04-29T11:32:06;95747.25;;;15.74;100.00
57606;BME280;43430;48.204;11.556;2023-04-29T11:34:31;95740.75;;;16.07;100.00
57606;BME280;43430;48.204;11.556;2023-04-29T11:36:57;95734.94;;;16.36;100.00
57606;BME280;43430;48.204;11.556;2023-04-29T11:39:22;95744.28;;;16.59;100.00
57606;BME280;43430;48.204;11.556;2023-04-29T11:41:48;95757.06;;;16.72;100.00
57606;BME280;43430;48.204;11.556;2023-04-29T11:44:14;95730.22;;;16.94;100.00
57606;BME280;43430;48.204;11.556;2023-04-29T11:46:39;95742.97;;;17.13;100.00
57606;BME280;43430;48.204;11.556;2023-04-29T11:49:04;95744.59;;;17.03;100.00
57606;BME280;43430;48.204;11.556;2023-04-29T11:51:33;95736.28;;;17.20;100.00
57606;BME280;43430;48.204;11.556;2023-04-29T11:53:58;95738.69;;;17.22;100.00
57606;BME280;43430;48.204;11.556;2023-04-29T11:56:24;95740.31;;;17.02;100.00
57606;BME280;43430;48.204;11.556;2023-04-29T11:58:53;95741.09;;;16.62;100.00
57606;BME280;43430;48.204;11.556;2023-04-29T12:01:20;95753.03;;;16.44;100.00
57606;BME280;43430;48.204;11.556;2023-04-29T12:03:48;95747.75;;;16.59;100.00
57606;BME280;43430;48.204;11.556;2023-04-29T12:06:13;95752.03;;;16.66;100.00
57606;BME280;43430;48.204;11.556;2023-04-29T12:08:39;95745.13;;;16.80;100.00
57606;BME280;43430;48.204;11.556;2023-04-29T12:11:06;95748.31;;;16.77;100.00
57606;BME280;43430;48.204;11.556;2023-04-29T12:13:32;95749.84;;;16.42;100.00
57606;BME280;43430;48.204;11.556;2023-04-29T12:16:00;95748.25;;;16.46;100.00
57606;BME280;43430;48.204;11.556;2023-04-29T12:18:27;95754.34;;;16.36;100.00
57606;BME280;43430;48.204;11.556;2023-04-29T12:20:53;95759.41;;;16.33;100.00
57606;BME280;43430;48.204;11.556;2023-04-29T12:23:23;95751.44;;;16.58;100.00
57606;BME280;43430;48.204;11.556;2023-04-29T12:25:58;95751.44;;;16.58;100.00
57606;BME280;43430;48.204;11.556;2023-04-29T12:28:25;95755.44;;;16.46;100.00
57606;BME280;43430;48.204;11.556;2023-04-29T12:30:52;95758.28;;;16.08;100.00
57606;BME280;43430;48.204;11.556;2023-04-29T12:33:28;95758.84;;;16.16;100.00
57606;BME280;43430;48.204;11.556;2023-04-29T12:35:55;95754.84;;;16.08;100.00
57606;BME280;43430;48.204;11.556;2023-04-29T12:38:31;95757.56;;;16.28;100.00
57606;BME280;43430;48.204;11.556;2023-04-29T12:40:59;95760.72;;;16.30;100.00
57606;BME280;43430;48.204;11.556;2023-04-29T12:43:31;95756.50;;;16.34;100.00
57606;BME280;43430;48.204;11.556;2023-04-29T12:46:05;95759.97;;;16.50;100.00
57606;BME280;43430;48.204;11.556;2023-04-29T12:48:33;95760.97;;;16.24;100.00
57606;BME280;43430;48.204;11.556;2023-04-29T12:50:59;95756.78;;;16.43;100.00
57606;BME280;43430;48.204;11.556;2023-04-29T12:53:26;95758.88;;;16.31;100.00
57606;BME280;43430;48.204;11.556;2023-04-29T12:55:52;95754.03;;;16.07;100.00
57606;BME280;43430;48.204;11.556;2023-04-29T12:58:18;95763.63;;;16.19;100.00
57606;BME280;43430;48.204;11.556;2023-04-29T13:00:43;95756.47;;;16.24;100.00
57606;BME280;43430;48.204;11.556;2023-04-29T13:03:08;95757.03;;;16.47;100.00